sensor_id;sensor_type;location;lat;lon;timestamp;temperature;humidity
49679;DHT22;35570;48.218;16.326;2023-04-10T00:02:20;7.00;99.90
49679;DHT22;35570;48.218;16.326;2023-04-10T00:04:46;7.00;99.90
49679;DHT22;35570;48.218;16.326;2023-04-10T00:07:12;7.00;99.90
49679;DHT22;35570;48.218;16.326;2023-04-10T00:09:38;7.00;99.90
49679;DHT22;35570;48.218;16.326;2023-04-10T00:12:04;7.10;99.90
49679;DHT22;35570;48.218;16.326;2023-04-10T00:14:30;7.00;99.90
49679;DHT22;35570;48.218;16.326;2023-04-10T00:16:56;7.00;99.90
49679;DHT22;35570;48.218;16.326;2023-04-10T00:19:21;7.00;99.90
49679;DHT22;35570;48.218;16.326;2023-04-10T00:21:47;7.00;99.90
49679;DHT22;35570;48.218;16.326;2023-04-10T00:24:13;7.00;99.90
49679;DHT22;35570;48.218;16.326;2023-04-10T00:26:39;7.00;99.90
49679;DHT22;35570;48.218;16.326;2023-04-10T00:29:05;7.00;99.90
49679;DHT22;35570;48.218;16.326;2023-04-10T00:31:31;7.00;99.90
49679;DHT22;35570;48.218;16.326;2023-04-10T00:33:57;7.00;99.90
49679;DHT22;35570;48.218;16.326;2023-04-10T00:36:22;7.00;99.90
49679;DHT22;35570;48.218;16.326;2023-04-10T00:38:48;7.00;99.90
49679;DHT22;35570;48.218;16.326;2023-04-10T00:41:14;7.00;99.90
49679;DHT22;35570;48.218;16.326;2023-04-10T00:43:41;7.00;99.90
49679;DHT22;35570;48.218;16.326;2023-04-10T00:46:07;7.00;99.90
49679;DHT22;35570;48.218;16.326;2023-04-10T00:48:33;7.00;99.90
49679;DHT22;35570;48.218;16.326;2023-04-10T00:50:59;6.90;99.90
49679;DHT22;35570;48.218;16.326;2023-04-10T00:53:26;6.90;99.90
49679;DHT22;35570;48.218;16.326;2023-04-10T00:55:52;7.00;99.90
49679;DHT22;35570;48.218;16.326;2023-04-10T00:58:18;6.90;99.90
49679;DHT22;35570;48.218;16.326;2023-04-10T01:00:46;6.90;99.90
49679;DHT22;35570;48.218;16.326;2023-04-10T01:03:12;6.80;99.90
49679;DHT22;35570;48.218;16.326;2023-04-10T01:08:21;6.90;99.90
49679;DHT22;35570;48.218;16.326;2023-04-10T01:11:04;6.90;99.90
49679;DHT22;35570;48.218;16.326;2023-04-10T01:13:32;6.90;99.90
49679;DHT22;35570;48.218;16.326;2023-04-10T01:16:12;7.00;99.90
49679;DHT22;35570;48.218;16.326;2023-04-10T01:18:41;7.00;99.90
49679;DHT22;35570;48.218;16.326;2023-04-10T01:21:11;7.10;99.90
49679;DHT22;35570;48.218;16.326;2023-04-10T01:29:16;7.10;99.90
49679;DHT22;35570;48.218;16.326;2023-04-10T01:31:52;7.10;99.90
49679;DHT22;35570;48.218;16.326;2023-04-10T01:34:22;7.00;99.90
49679;DHT22;35570;48.218;16.326;2023-04-10T01:36:54;7.10;99.90
49679;DHT22;35570;48.218;16.326;2023-04-10T01:39:25;7.00;99.90
49679;DHT22;35570;48.218;16.326;2023-04-10T01:41:53;7.00;99.90
49679;DHT22;35570;48.218;16.326;2023-04-10T01:44:23;7.00;99.90
49679;DHT22;35570;48.218;16.326;2023-04-10T01:46:53;7.00;99.90
49679;DHT22;35570;48.218;16.326;2023-04-10T01:49:22;7.10;99.90
49679;DHT22;35570;48.218;16.326;2023-04-10T01:51:48;7.10;99.90
49679;DHT22;35570;48.218;16.326;2023-04-10T01:54:16;7.10;99.80
49679;DHT22;35570;48.218;16.326;2023-04-10T01:56:42;7.10;99.80
49679;DHT22;35570;48.218;16.326;2023-04-10T01:59:08;7.00;99.90
49679;DHT22;35570;48.218;16.326;2023-04-10T02:01:33;7.00;99.90
49679;DHT22;35570;48.218;16.326;2023-04-10T02:04:00;6.90;99.90
49679;DHT22;35570;48.218;16.326;2023-04-10T02:11:48;6.90;99.90
49679;DHT22;35570;48.218;16.326;2023-04-10T02:14:17;6.80;99.90
49679;DHT22;35570;48.218;16.326;2023-04-10T02:16:45;6.80;99.90
49679;DHT22;35570;48.218;16.326;2023-04-10T02:19:12;6.80;99.90
49679;DHT22;35570;48.218;16.326;2023-04-10T02:21:38;6.80;99.90
49679;DHT22;35570;48.218;16.326;2023-04-10T02:24:06;6.70;99.90
49679;DHT22;35570;48.218;16.326;2023-04-10T02:26:49;6.70;99.90
49679;DHT22;35570;48.218;16.326;2023-04-10T02:29:15;6.60;99.90
49679;DHT22;35570;48.218;16.326;2023-04-10T02:31:41;6.60;99.90
49679;DHT22;35570;48.218;16.326;2023-04-10T02:34:07;6.60;99.90
49679;DHT22;35570;48.218;16.326;2023-04-10T02:36:35;6.60;99.90
49679;DHT22;35570;48.218;16.326;2023-04-10T02:39:01;6.60;99.90
49679;DHT22;35570;48.218;16.326;2023-04-10T02:41:26;6.60;99.90
49679;DHT22;35570;48.218;16.326;2023-04-10T02:43:52;6.60;99.90
49679;DHT22;35570;48.218;16.326;2023-04-10T02:46:17;6.60;99.90
49679;DHT22;35570;48.218;16.326;2023-04-10T02:48:43;6.50;99.90
49679;DHT22;35570;48.218;16.326;2023-04-10T02:51:09;6.50;99.90
49679;DHT22;35570;48.218;16.326;2023-04-10T02:53:35;6.50;99.90
49679;DHT22;35570;48.218;16.326;2023-04-10T02:56:00;6.50;99.90
49679;DHT22;35570;48.218;16.326;2023-04-10T02:58:27;6.50;99.90
49679;DHT22;35570;48.218;16.326;2023-04-10T03:00:52;6.40;99.90
49679;DHT22;35570;48.218;16.326;2023-04-10T03:03:18;6.40;99.90
49679;DHT22;35570;48.218;16.326;2023-04-10T03:05:45;6.40;99.90
49679;DHT22;35570;48.218;16.326;2023-04-10T03:08:12;6.40;99.90
49679;DHT22;35570;48.218;16.326;2023-04-10T03:10:38;6.50;99.90
49679;DHT22;35570;48.218;16.326;2023-04-10T03:13:03;6.50;99.90
49679;DHT22;35570;48.218;16.326;2023-04-10T03:15:29;6.50;99.90
49679;DHT22;35570;48.218;16.326;2023-04-10T03:17:55;6.40;99.90
49679;DHT22;35570;48.218;16.326;2023-04-10T03:20:21;6.40;99.90
49679;DHT22;35570;48.218;16.326;2023-04-10T03:22:46;6.40;99.90
49679;DHT22;35570;48.218;16.326;2023-04-10T03:25:12;6.40;99.90
49679;DHT22;35570;48.218;16.326;2023-04-10T03:27:38;6.40;99.90
49679;DHT22;35570;48.218;16.326;2023-04-10T03:30:04;6.40;99.90
49679;DHT22;35570;48.218;16.326;2023-04-10T03:32:30;6.30;99.90
49679;DHT22;35570;48.218;16.326;2023-04-10T03:34:56;6.30;99.90
49679;DHT22;35570;48.218;16.326;2023-04-10T03:37:23;6.30;99.90
49679;DHT22;35570;48.218;16.326;2023-04-10T03:39:48;6.30;99.90
49679;DHT22;35570;48.218;16.326;2023-04-10T03:42:14;6.30;99.90
49679;DHT22;35570;48.218;16.326;2023-04-10T03:44:40;6.30;99.90
49679;DHT22;35570;48.218;16.326;2023-04-10T03:47:05;6.20;99.90
49679;DHT22;35570;48.218;16.326;2023-04-10T03:49:31;6.20;99.90
49679;DHT22;35570;48.218;16.326;2023-04-10T03:51:57;6.20;99.90
49679;DHT22;35570;48.218;16.326;2023-04-10T03:54:22;6.20;99.90
49679;DHT22;35570;48.218;16.326;2023-04-10T03:56:48;6.20;99.90
49679;DHT22;35570;48.218;16.326;2023-04-10T03:59:13;6.20;99.90
49679;DHT22;35570;48.218;16.326;2023-04-10T04:01:39;6.20;99.90
49679;DHT22;35570;48.218;16.326;2023-04-10T04:04:05;6.20;99.90
49679;DHT22;35570;48.218;16.326;2023-04-10T04:06:30;6.20;99.90
49679;DHT22;35570;48.218;16.326;2023-04-10T04:08:56;6.20;99.90
49679;DHT22;35570;48.218;16.326;2023-04-10T04:11:22;6.10;99.90
49679;DHT22;35570;48.218;16.326;2023-04-10T04:13:47;6.10;99.90
49679;DHT22;35570;48.218;16.326;2023-04-10T04:16:13;6.00;99.90
49679;DHT22;35570;48.218;16.326;2023-04-10T04:18:39;6.00;99.90
49679;DHT22;35570;48.218;16.326;2023-04-10T04:21:05;6.00;99.90
49679;DHT22;35570;48.218;16.326;2023-04-10T04:23:32;6.00;99.90
49679;DHT22;35570;48.218;16.326;2023-04-10T04:25:58;5.90;99.90
49679;DHT22;35570;48.218;16.326;2023-04-10T04:28:24;5.90;99.90
49679;DHT22;35570;48.218;16.326;2023-04-10T04:30:49;6.00;99.90
49679;DHT22;35570;48.218;16.326;2023-04-10T04:33:15;5.90;99.90
49679;DHT22;35570;48.218;16.326;2023-04-10T04:35:40;6.00;99.90
49679;DHT22;35570;48.218;16.326;2023-04-10T04:38:06;6.00;99.90
49679;DHT22;35570;48.218;16.326;2023-04-10T04:40:32;6.00;99.90
49679;DHT22;35570;48.218;16.326;2023-04-10T04:42:57;6.10;99.90
49679;DHT22;35570;48.218;16.326;2023-04-10T04:45:23;6.10;99.90
49679;DHT22;35570;48.218;16.326;2023-04-10T04:47:49;6.10;99.90
49679;DHT22;35570;48.218;16.326;2023-04-10T04:50:15;6.20;99.90
49679;DHT22;35570;48.218;16.326;2023-04-10T04:52:42;6.10;99.90
49679;DHT22;35570;48.218;16.326;2023-04-10T04:55:09;6.20;99.90
49679;DHT22;35570;48.218;16.326;2023-04-10T04:57:34;6.20;99.90
49679;DHT22;35570;48.218;16.326;2023-04-10T05:00:00;6.10;99.90
49679;DHT22;35570;48.218;16.326;2023-04-10T05:02:25;6.20;99.90
49679;DHT22;35570;48.218;16.326;2023-04-10T05:04:51;6.20;99.90
49679;DHT22;35570;48.218;16.326;2023-04-10T05:07:17;6.30;99.90
49679;DHT22;35570;48.218;16.326;2023-04-10T05:09:42;6.30;99.90
49679;DHT22;35570;48.218;16.326;2023-04-10T05:12:08;6.40;99.90
49679;DHT22;35570;48.218;16.326;2023-04-10T05:14:33;6.40;99.90
49679;DHT22;35570;48.218;16.326;2023-04-10T05:16:59;6.40;99.90
49679;DHT22;35570;48.218;16.326;2023-04-10T05:19:25;6.50;99.90
49679;DHT22;35570;48.218;16.326;2023-04-10T05:21:50;6.50;99.90
49679;DHT22;35570;48.218;16.326;2023-04-10T05:24:16;6.60;99.90
49679;DHT22;35570;48.218;16.326;2023-04-10T05:26:42;6.60;99.90
49679;DHT22;35570;48.218;16.326;2023-04-10T05:29:08;6.60;99.90
49679;DHT22;35570;48.218;16.326;2023-04-10T05:31:33;6.70;99.90
49679;DHT22;35570;48.218;16.326;2023-04-10T05:33:59;6.70;99.90
49679;DHT22;35570;48.218;16.326;2023-04-10T05:36:25;6.70;99.90
49679;DHT22;35570;48.218;16.326;2023-04-10T05:38:51;6.80;99.90
49679;DHT22;35570;48.218;16.326;2023-04-10T05:41:16;6.80;99.90
49679;DHT22;35570;48.218;16.326;2023-04-10T05:43:42;6.90;99.90
49679;DHT22;35570;48.218;16.326;2023-04-10T05:46:07;7.00;99.90
49679;DHT22;35570;48.218;16.326;2023-04-10T05:48:33;7.10;99.90
49679;DHT22;35570;48.218;16.326;2023-04-10T05:50:59;7.10;99.90
49679;DHT22;35570;48.218;16.326;2023-04-10T05:53:28;7.10;99.90
49679;DHT22;35570;48.218;16.326;2023-04-10T05:55:57;7.20;99.90
49679;DHT22;35570;48.218;16.326;2023-04-10T05:58:27;7.20;99.90
49679;DHT22;35570;48.218;16.326;2023-04-10T06:00:53;7.30;99.90
49679;DHT22;35570;48.218;16.326;2023-04-10T06:03:20;7.40;99.90
49679;DHT22;35570;48.218;16.326;2023-04-10T06:05:46;7.50;99.90
49679;DHT22;35570;48.218;16.326;2023-04-10T06:08:11;7.50;99.80
49679;DHT22;35570;48.218;16.326;2023-04-10T06:10:37;7.50;99.80
49679;DHT22;35570;48.218;16.326;2023-04-10T06:13:03;7.60;99.80
49679;DHT22;35570;48.218;16.326;2023-04-10T06:15:29;7.60;99.70
49679;DHT22;35570;48.218;16.326;2023-04-10T06:17:54;7.70;99.50
49679;DHT22;35570;48.218;16.326;2023-04-10T06:20:20;7.80;99.30
49679;DHT22;35570;48.218;16.326;2023-04-10T06:22:46;7.90;98.90
49679;DHT22;35570;48.218;16.326;2023-04-10T06:25:12;7.90;98.80
49679;DHT22;35570;48.218;16.326;2023-04-10T06:27:38;8.00;98.80
49679;DHT22;35570;48.218;16.326;2023-04-10T06:30:04;8.10;98.70
49679;DHT22;35570;48.218;16.326;2023-04-10T06:32:30;8.30;98.50
49679;DHT22;35570;48.218;16.326;2023-04-10T06:34:56;8.30;97.90
49679;DHT22;35570;48.218;16.326;2023-04-10T06:37:31;8.30;97.60
49679;DHT22;35570;48.218;16.326;2023-04-10T06:40:07;8.40;97.70
49679;DHT22;35570;48.218;16.326;2023-04-10T06:42:33;8.60;99.80
49679;DHT22;35570;48.218;16.326;2023-04-10T06:44:59;8.80;98.70
49679;DHT22;35570;48.218;16.326;2023-04-10T06:47:25;8.90;97.60
49679;DHT22;35570;48.218;16.326;2023-04-10T06:49:51;9.10;96.50
49679;DHT22;35570;48.218;16.326;2023-04-10T06:52:17;9.20;96.60
49679;DHT22;35570;48.218;16.326;2023-04-10T06:54:42;9.30;95.30
49679;DHT22;35570;48.218;16.326;2023-04-10T06:57:08;9.40;94.90
49679;DHT22;35570;48.218;16.326;2023-04-10T06:59:34;9.50;94.40
49679;DHT22;35570;48.218;16.326;2023-04-10T07:02:03;9.50;94.00
49679;DHT22;35570;48.218;16.326;2023-04-10T07:04:30;9.60;93.50
49679;DHT22;35570;48.218;16.326;2023-04-10T07:06:56;9.70;93.30
49679;DHT22;35570;48.218;16.326;2023-04-10T07:09:23;9.80;92.40
49679;DHT22;35570;48.218;16.326;2023-04-10T07:11:49;9.80;92.20
49679;DHT22;35570;48.218;16.326;2023-04-10T07:14:14;9.80;92.50
49679;DHT22;35570;48.218;16.326;2023-04-10T07:16:40;9.90;92.00
49679;DHT22;35570;48.218;16.326;2023-04-10T07:19:05;10.00;92.20
49679;DHT22;35570;48.218;16.326;2023-04-10T07:21:31;10.10;92.10
49679;DHT22;35570;48.218;16.326;2023-04-10T07:23:57;10.10;90.10
49679;DHT22;35570;48.218;16.326;2023-04-10T07:26:23;10.20;91.00
49679;DHT22;35570;48.218;16.326;2023-04-10T07:28:49;10.20;91.10
49679;DHT22;35570;48.218;16.326;2023-04-10T07:31:15;10.30;91.00
49679;DHT22;35570;48.218;16.326;2023-04-10T07:33:45;10.30;90.40
49679;DHT22;35570;48.218;16.326;2023-04-10T07:36:11;10.50;90.40
49679;DHT22;35570;48.218;16.326;2023-04-10T07:38:37;10.60;90.40
49679;DHT22;35570;48.218;16.326;2023-04-10T07:41:04;10.70;90.30
49679;DHT22;35570;48.218;16.326;2023-04-10T07:43:30;10.90;86.90
49679;DHT22;35570;48.218;16.326;2023-04-10T07:45:56;11.00;86.00
49679;DHT22;35570;48.218;16.326;2023-04-10T07:48:22;11.00;86.00
49679;DHT22;35570;48.218;16.326;2023-04-10T07:50:47;11.10;85.40
49679;DHT22;35570;48.218;16.326;2023-04-10T07:53:13;11.20;83.80
49679;DHT22;35570;48.218;16.326;2023-04-10T07:55:42;11.30;82.90
49679;DHT22;35570;48.218;16.326;2023-04-10T07:58:09;11.40;82.20
49679;DHT22;35570;48.218;16.326;2023-04-10T08:00:35;11.50;81.80
49679;DHT22;35570;48.218;16.326;2023-04-10T08:03:02;11.60;80.40
49679;DHT22;35570;48.218;16.326;2023-04-10T08:05:28;11.70;80.00
49679;DHT22;35570;48.218;16.326;2023-04-10T08:07:54;11.80;80.50
49679;DHT22;35570;48.218;16.326;2023-04-10T08:10:19;12.00;80.80
49679;DHT22;35570;48.218;16.326;2023-04-10T08:12:45;12.10;79.10
49679;DHT22;35570;48.218;16.326;2023-04-10T08:17:54;12.60;76.30
49679;DHT22;35570;48.218;16.326;2023-04-10T08:20:20;12.70;76.10
49679;DHT22;35570;48.218;16.326;2023-04-10T08:22:46;12.70;74.50
49679;DHT22;35570;48.218;16.326;2023-04-10T08:25:11;12.70;73.60
49679;DHT22;35570;48.218;16.326;2023-04-10T08:27:37;12.70;74.10
49679;DHT22;35570;48.218;16.326;2023-04-10T08:30:03;12.80;74.80
49679;DHT22;35570;48.218;16.326;2023-04-10T08:32:29;12.90;75.30
49679;DHT22;35570;48.218;16.326;2023-04-10T08:34:56;13.00;73.00
49679;DHT22;35570;48.218;16.326;2023-04-10T08:37:22;12.80;72.50
49679;DHT22;35570;48.218;16.326;2023-04-10T08:39:47;12.60;73.40
49679;DHT22;35570;48.218;16.326;2023-04-10T08:42:13;12.60;75.10
49679;DHT22;35570;48.218;16.326;2023-04-10T08:44:39;12.60;74.10
49679;DHT22;35570;48.218;16.326;2023-04-10T08:47:07;12.60;74.00
49679;DHT22;35570;48.218;16.326;2023-04-10T08:49:52;12.60;73.90
49679;DHT22;35570;48.218;16.326;2023-04-10T08:52:24;12.60;74.50
49679;DHT22;35570;48.218;16.326;2023-04-10T08:54:53;12.90;74.20
49679;DHT22;35570;48.218;16.326;2023-04-10T08:57:20;13.40;73.10
49679;DHT22;35570;48.218;16.326;2023-04-10T08:59:47;13.60;70.60
49679;DHT22;35570;48.218;16.326;2023-04-10T09:02:13;13.60;69.20
49679;DHT22;35570;48.218;16.326;2023-04-10T09:04:48;13.40;69.80
49679;DHT22;35570;48.218;16.326;2023-04-10T09:07:15;13.30;71.20
49679;DHT22;35570;48.218;16.326;2023-04-10T09:09:41;13.50;71.70
49679;DHT22;35570;48.218;16.326;2023-04-10T09:12:06;13.40;69.50
49679;DHT22;35570;48.218;16.326;2023-04-10T09:14:34;13.40;70.50
49679;DHT22;35570;48.218;16.326;2023-04-10T09:17:19;13.50;69.60
49679;DHT22;35570;48.218;16.326;2023-04-10T09:19:47;13.50;70.40
49679;DHT22;35570;48.218;16.326;2023-04-10T09:22:14;13.70;70.50
49679;DHT22;35570;48.218;16.326;2023-04-10T09:24:42;14.10;70.10
49679;DHT22;35570;48.218;16.326;2023-04-10T09:27:08;14.50;68.70
49679;DHT22;35570;48.218;16.326;2023-04-10T09:29:44;14.80;68.20
49679;DHT22;35570;48.218;16.326;2023-04-10T09:32:12;15.10;65.00
49679;DHT22;35570;48.218;16.326;2023-04-10T09:34:55;15.40;65.30
49679;DHT22;35570;48.218;16.326;2023-04-10T09:37:31;15.60;64.90
49679;DHT22;35570;48.218;16.326;2023-04-10T09:39:57;15.90;64.40
49679;DHT22;35570;48.218;16.326;2023-04-10T09:42:33;16.00;62.70
49679;DHT22;35570;48.218;16.326;2023-04-10T09:45:00;16.00;62.80
49679;DHT22;35570;48.218;16.326;2023-04-10T09:47:26;16.10;62.60
49679;DHT22;35570;48.218;16.326;2023-04-10T09:49:56;16.30;61.90
49679;DHT22;35570;48.218;16.326;2023-04-10T09:52:32;16.50;61.30
49679;DHT22;35570;48.218;16.326;2023-04-10T09:55:03;16.80;61.00
49679;DHT22;35570;48.218;16.326;2023-04-10T09:57:31;17.10;60.00
49679;DHT22;35570;48.218;16.326;2023-04-10T10:00:04;17.10;58.40
49679;DHT22;35570;48.218;16.326;2023-04-10T10:02:37;17.00;57.90
49679;DHT22;35570;48.218;16.326;2023-04-10T10:05:06;17.10;59.00
49679;DHT22;35570;48.218;16.326;2023-04-10T10:07:33;17.40;59.10
49679;DHT22;35570;48.218;16.326;2023-04-10T10:10:01;17.60;57.30
49679;DHT22;35570;48.218;16.326;2023-04-10T10:14:59;17.80;54.60
49679;DHT22;35570;48.218;16.326;2023-04-10T10:17:33;17.80;56.00
49679;DHT22;35570;48.218;16.326;2023-04-10T10:20:03;18.10;55.30
49679;DHT22;35570;48.218;16.326;2023-04-10T10:22:31;18.80;55.80
49679;DHT22;35570;48.218;16.326;2023-04-10T10:24:58;19.40;55.40
49679;DHT22;35570;48.218;16.326;2023-04-10T10:27:25;19.90;50.80
49679;DHT22;35570;48.218;16.326;2023-04-10T10:29:53;19.80;51.30
49679;DHT22;35570;48.218;16.326;2023-04-10T10:34:47;20.50;59.30
49679;DHT22;35570;48.218;16.326;2023-04-10T10:37:16;21.20;60.60
49679;DHT22;35570;48.218;16.326;2023-04-10T10:39:54;22.30;48.80
49679;DHT22;35570;48.218;16.326;2023-04-10T10:42:29;23.30;47.90
49679;DHT22;35570;48.218;16.326;2023-04-10T10:45:12;24.70;45.10
49679;DHT22;35570;48.218;16.326;2023-04-10T10:47:52;26.40;44.50
49679;DHT22;35570;48.218;16.326;2023-04-10T10:50:18;26.90;39.30
49679;DHT22;35570;48.218;16.326;2023-04-10T10:52:45;26.10;39.30
49679;DHT22;35570;48.218;16.326;2023-04-10T10:57:50;26.70;41.10
49679;DHT22;35570;48.218;16.326;2023-04-10T11:00:23;27.70;38.50
49679;DHT22;35570;48.218;16.326;2023-04-10T11:05:52;29.30;35.70
49679;DHT22;35570;48.218;16.326;2023-04-10T11:08:42;29.40;36.30
49679;DHT22;35570;48.218;16.326;2023-04-10T11:19:05;30.80;34.50
49679;DHT22;35570;48.218;16.326;2023-04-10T11:21:33;31.00;33.80
49679;DHT22;35570;48.218;16.326;2023-04-10T11:32:02;31.10;34.40
49679;DHT22;35570;48.218;16.326;2023-04-10T11:34:28;31.60;32.40
49679;DHT22;35570;48.218;16.326;2023-04-10T11:37:01;31.10;32.20
49679;DHT22;35570;48.218;16.326;2023-04-10T11:39:29;30.70;31.90
49679;DHT22;35570;48.218;16.326;2023-04-10T11:41:55;30.40;32.00
49679;DHT22;35570;48.218;16.326;2023-04-10T11:46:50;30.10;32.40
49679;DHT22;35570;48.218;16.326;2023-04-10T11:49:25;30.10;32.90
49679;DHT22;35570;48.218;16.326;2023-04-10T11:51:52;29.80;32.80
49679;DHT22;35570;48.218;16.326;2023-04-10T11:54:20;29.60;34.60
49679;DHT22;35570;48.218;16.326;2023-04-10T11:57:00;29.90;32.80
49679;DHT22;35570;48.218;16.326;2023-04-10T11:59:26;30.10;31.70
49679;DHT22;35570;48.218;16.326;2023-04-10T12:02:01;30.60;31.50
49679;DHT22;35570;48.218;16.326;2023-04-10T12:04:27;30.80;31.20
49679;DHT22;35570;48.218;16.326;2023-04-10T12:06:55;30.70;31.20
49679;DHT22;35570;48.218;16.326;2023-04-10T12:09:22;29.10;31.40
49679;DHT22;35570;48.218;16.326;2023-04-10T12:14:33;25.50;35.50
49679;DHT22;35570;48.218;16.326;2023-04-10T12:17:00;24.30;37.20
49679;DHT22;35570;48.218;16.326;2023-04-10T12:19:27;23.20;38.80
49679;DHT22;35570;48.218;16.326;2023-04-10T12:21:53;23.40;40.40
49679;DHT22;35570;48.218;16.326;2023-04-10T12:24:48;25.00;41.60
49679;DHT22;35570;48.218;16.326;2023-04-10T12:27:18;26.80;35.60
49679;DHT22;35570;48.218;16.326;2023-04-10T12:29:54;27.90;38.00
49679;DHT22;35570;48.218;16.326;2023-04-10T12:32:21;28.90;33.80
49679;DHT22;35570;48.218;16.326;2023-04-10T12:34:54;29.70;33.30
49679;DHT22;35570;48.218;16.326;2023-04-10T12:37:24;30.00;33.00
49679;DHT22;35570;48.218;16.326;2023-04-10T12:39:50;30.50;34.80
49679;DHT22;35570;48.218;16.326;2023-04-10T12:42:19;31.10;33.00
49679;DHT22;35570;48.218;16.326;2023-04-10T12:44:57;31.60;31.90
49679;DHT22;35570;48.218;16.326;2023-04-10T12:47:24;31.90;31.80
49679;DHT22;35570;48.218;16.326;2023-04-10T12:50:10;32.20;31.40
49679;DHT22;35570;48.218;16.326;2023-04-10T12:52:39;32.50;30.30
49679;DHT22;35570;48.218;16.326;2023-04-10T12:55:15;32.20;31.30
49679;DHT22;35570;48.218;16.326;2023-04-10T12:57:43;31.60;29.90
49679;DHT22;35570;48.218;16.326;2023-04-10T13:00:11;29.90;30.50
49679;DHT22;35570;48.218;16.326;2023-04-10T13:02:38;28.20;32.50
49679;DHT22;35570;48.218;16.326;2023-04-10T13:05:05;27.10;34.00
49679;DHT22;35570;48.218;16.326;2023-04-10T13:07:31;26.10;34.70
49679;DHT22;35570;48.218;16.326;2023-04-10T13:09:57;25.00;35.70
49679;DHT22;35570;48.218;16.326;2023-04-10T13:12:23;24.10;36.60
49679;DHT22;35570;48.218;16.326;2023-04-10T13:14:53;23.60;38.00
49679;DHT22;35570;48.218;16.326;2023-04-10T13:17:23;23.40;37.50
49679;DHT22;35570;48.218;16.326;2023-04-10T13:19:48;23.70;37.50
49679;DHT22;35570;48.218;16.326;2023-04-10T13:22:14;25.00;37.70
49679;DHT22;35570;48.218;16.326;2023-04-10T13:24:41;26.60;35.00
49679;DHT22;35570;48.218;16.326;2023-04-10T13:27:06;27.80;33.30
49679;DHT22;35570;48.218;16.326;2023-04-10T13:29:34;28.70;32.10
49679;DHT22;35570;48.218;16.326;2023-04-10T13:32:00;29.40;31.80
49679;DHT22;35570;48.218;16.326;2023-04-10T13:34:28;29.90;31.90
49679;DHT22;35570;48.218;16.326;2023-04-10T13:36:54;30.50;30.50
49679;DHT22;35570;48.218;16.326;2023-04-10T13:39:19;30.80;30.20
49679;DHT22;35570;48.218;16.326;2023-04-10T13:41:45;31.00;30.10
49679;DHT22;35570;48.218;16.326;2023-04-10T13:44:11;30.60;30.60
49679;DHT22;35570;48.218;16.326;2023-04-10T13:46:36;30.50;32.10
49679;DHT22;35570;48.218;16.326;2023-04-10T13:49:02;29.90;30.70
49679;DHT22;35570;48.218;16.326;2023-04-10T13:51:28;29.40;31.70
49679;DHT22;35570;48.218;16.326;2023-04-10T13:53:54;29.20;31.80
49679;DHT22;35570;48.218;16.326;2023-04-10T13:56:20;29.80;31.40
49679;DHT22;35570;48.218;16.326;2023-04-10T13:58:46;30.30;31.70
49679;DHT22;35570;48.218;16.326;2023-04-10T14:01:11;30.10;30.90
49679;DHT22;35570;48.218;16.326;2023-04-10T14:03:37;30.30;30.30
49679;DHT22;35570;48.218;16.326;2023-04-10T14:06:03;31.00;30.80
49679;DHT22;35570;48.218;16.326;2023-04-10T14:08:29;31.40;30.00
49679;DHT22;35570;48.218;16.326;2023-04-10T14:10:55;31.40;29.60
49679;DHT22;35570;48.218;16.326;2023-04-10T14:13:21;30.80;29.70
49679;DHT22;35570;48.218;16.326;2023-04-10T14:15:46;30.60;30.00
49679;DHT22;35570;48.218;16.326;2023-04-10T14:18:12;29.40;30.20
49679;DHT22;35570;48.218;16.326;2023-04-10T14:20:41;29.10;30.80
49679;DHT22;35570;48.218;16.326;2023-04-10T14:23:07;28.00;31.90
49679;DHT22;35570;48.218;16.326;2023-04-10T14:25:33;26.60;32.80
49679;DHT22;35570;48.218;16.326;2023-04-10T14:27:59;25.40;34.40
49679;DHT22;35570;48.218;16.326;2023-04-10T14:30:25;25.30;34.30
49679;DHT22;35570;48.218;16.326;2023-04-10T14:32:55;25.70;34.20
49679;DHT22;35570;48.218;16.326;2023-04-10T14:35:21;26.50;33.10
49679;DHT22;35570;48.218;16.326;2023-04-10T14:37:47;27.30;32.20
49679;DHT22;35570;48.218;16.326;2023-04-10T14:40:12;27.50;32.80
49679;DHT22;35570;48.218;16.326;2023-04-10T14:42:38;27.50;32.20
49679;DHT22;35570;48.218;16.326;2023-04-10T14:45:04;27.00;32.80
49679;DHT22;35570;48.218;16.326;2023-04-10T14:47:30;25.90;34.00
49679;DHT22;35570;48.218;16.326;2023-04-10T14:49:56;24.70;35.70
49679;DHT22;35570;48.218;16.326;2023-04-10T14:52:22;23.60;37.10
49679;DHT22;35570;48.218;16.326;2023-04-10T14:54:48;22.60;38.70
49679;DHT22;35570;48.218;16.326;2023-04-10T14:57:14;21.90;39.60
49679;DHT22;35570;48.218;16.326;2023-04-10T14:59:40;21.30;40.30
49679;DHT22;35570;48.218;16.326;2023-04-10T15:02:06;20.80;40.50
49679;DHT22;35570;48.218;16.326;2023-04-10T15:04:32;20.20;40.30
49679;DHT22;35570;48.218;16.326;2023-04-10T15:06:57;19.80;41.30
49679;DHT22;35570;48.218;16.326;2023-04-10T15:09:23;19.50;41.50
49679;DHT22;35570;48.218;16.326;2023-04-10T15:11:48;19.20;41.90
49679;DHT22;35570;48.218;16.326;2023-04-10T15:14:14;19.10;42.10
49679;DHT22;35570;48.218;16.326;2023-04-10T15:16:40;18.90;42.80
49679;DHT22;35570;48.218;16.326;2023-04-10T15:19:06;19.00;43.00
49679;DHT22;35570;48.218;16.326;2023-04-10T15:21:32;19.20;43.10
49679;DHT22;35570;48.218;16.326;2023-04-10T15:23:58;19.40;42.10
49679;DHT22;35570;48.218;16.326;2023-04-10T15:26:23;19.50;41.60
49679;DHT22;35570;48.218;16.326;2023-04-10T15:28:49;19.70;41.30
49679;DHT22;35570;48.218;16.326;2023-04-10T15:31:15;19.80;40.50
49679;DHT22;35570;48.218;16.326;2023-04-10T15:33:41;19.90;40.90
49679;DHT22;35570;48.218;16.326;2023-04-10T15:36:07;20.00;40.60
49679;DHT22;35570;48.218;16.326;2023-04-10T15:38:34;20.00;40.60
49679;DHT22;35570;48.218;16.326;2023-04-10T15:41:00;20.00;40.70
49679;DHT22;35570;48.218;16.326;2023-04-10T15:43:25;20.00;41.50
49679;DHT22;35570;48.218;16.326;2023-04-10T15:45:52;19.70;41.10
49679;DHT22;35570;48.218;16.326;2023-04-10T15:48:17;19.50;41.80
49679;DHT22;35570;48.218;16.326;2023-04-10T15:50:43;19.50;43.10
49679;DHT22;35570;48.218;16.326;2023-04-10T15:53:09;19.30;42.60
49679;DHT22;35570;48.218;16.326;2023-04-10T15:55:40;19.20;43.00
49679;DHT22;35570;48.218;16.326;2023-04-10T15:58:06;19.10;43.40
49679;DHT22;35570;48.218;16.326;2023-04-10T16:00:31;19.30;43.10
49679;DHT22;35570;48.218;16.326;2023-04-10T16:02:57;19.20;42.50
49679;DHT22;35570;48.218;16.326;2023-04-10T16:05:23;19.00;43.00
49679;DHT22;35570;48.218;16.326;2023-04-10T16:07:48;19.20;43.60
49679;DHT22;35570;48.218;16.326;2023-04-10T16:10:14;19.50;42.80
49679;DHT22;35570;48.218;16.326;2023-04-10T16:12:40;19.60;43.40